sensor_id;sensor_type;location;lat;lon;timestamp;P1;durP1;ratioP1;P2;durP2;ratioP2
18449;SDS011;9354;50.194;7.690;2022-08-02T00:00:12;5.33;;;3.87;;
18449;SDS011;9354;50.194;7.690;2022-08-02T00:02:41;7.67;;;3.63;;
18449;SDS011;9354;50.194;7.690;2022-08-02T00:05:10;4.30;;;3.33;;
18449;SDS011;9354;50.194;7.690;2022-08-02T00:07:38;4.83;;;3.67;;
18449;SDS011;9354;50.194;7.690;2022-08-02T00:10:06;5.93;;;3.87;;
18449;SDS011;9354;50.194;7.690;2022-08-02T00:12:35;4.87;;;3.80;;
18449;SDS011;9354;50.194;7.690;2022-08-02T00:15:03;7.03;;;4.53;;
18449;SDS011;9354;50.194;7.690;2022-08-02T00:17:31;8.20;;;4.40;;
18449;SDS011;9354;50.194;7.690;2022-08-02T00:19:59;5.27;;;4.17;;
18449;SDS011;9354;50.194;7.690;2022-08-02T00:22:28;6.63;;;4.47;;
18449;SDS011;9354;50.194;7.690;2022-08-02T00:24:55;5.63;;;4.80;;
18449;SDS011;9354;50.194;7.690;2022-08-02T00:27:23;5.20;;;4.20;;
18449;SDS011;9354;50.194;7.690;2022-08-02T00:29:50;7.67;;;4.70;;
18449;SDS011;9354;50.194;7.690;2022-08-02T00:32:17;7.77;;;4.90;;
18449;SDS011;9354;50.194;7.690;2022-08-02T00:34:45;5.00;;;4.23;;
18449;SDS011;9354;50.194;7.690;2022-08-02T00:37:12;7.93;;;4.47;;
18449;SDS011;9354;50.194;7.690;2022-08-02T00:39:42;8.33;;;4.50;;
18449;SDS011;9354;50.194;7.690;2022-08-02T00:42:09;5.37;;;4.20;;
18449;SDS011;9354;50.194;7.690;2022-08-02T00:44:39;8.80;;;4.90;;
18449;SDS011;9354;50.194;7.690;2022-08-02T00:47:06;7.57;;;4.60;;
18449;SDS011;9354;50.194;7.690;2022-08-02T00:49:34;11.47;;;4.93;;
18449;SDS011;9354;50.194;7.690;2022-08-02T00:52:02;7.50;;;5.23;;
18449;SDS011;9354;50.194;7.690;2022-08-02T00:54:30;6.87;;;5.30;;
18449;SDS011;9354;50.194;7.690;2022-08-02T00:56:58;12.77;;;5.50;;
18449;SDS011;9354;50.194;7.690;2022-08-02T00:59:26;7.53;;;5.33;;
18449;SDS011;9354;50.194;7.690;2022-08-02T01:01:53;7.20;;;5.70;;
18449;SDS011;9354;50.194;7.690;2022-08-02T01:04:21;8.83;;;6.00;;
18449;SDS011;9354;50.194;7.690;2022-08-02T01:06:48;6.00;;;5.23;;
18449;SDS011;9354;50.194;7.690;2022-08-02T01:09:16;5.53;;;4.17;;
18449;SDS011;9354;50.194;7.690;2022-08-02T01:11:43;6.30;;;4.63;;
18449;SDS011;9354;50.194;7.690;2022-08-02T01:14:12;9.37;;;4.93;;
18449;SDS011;9354;50.194;7.690;2022-08-02T01:16:42;6.93;;;5.27;;
18449;SDS011;9354;50.194;7.690;2022-08-02T01:19:19;7.80;;;5.57;;
18449;SDS011;9354;50.194;7.690;2022-08-02T01:22:04;8.07;;;5.47;;
18449;SDS011;9354;50.194;7.690;2022-08-02T01:25:12;6.80;;;5.37;;
18449;SDS011;9354;50.194;7.690;2022-08-02T01:30:33;11.70;;;6.10;;
18449;SDS011;9354;50.194;7.690;2022-08-02T01:33:04;6.20;;;4.70;;
18449;SDS011;9354;50.194;7.690;2022-08-02T01:35:35;6.40;;;4.70;;
18449;SDS011;9354;50.194;7.690;2022-08-02T01:38:08;9.37;;;5.60;;
18449;SDS011;9354;50.194;7.690;2022-08-02T01:40:41;7.30;;;5.90;;
18449;SDS011;9354;50.194;7.690;2022-08-02T01:43:12;10.33;;;5.50;;
18449;SDS011;9354;50.194;7.690;2022-08-02T01:45:41;8.93;;;5.63;;
18449;SDS011;9354;50.194;7.690;2022-08-02T01:48:09;6.37;;;5.13;;
18449;SDS011;9354;50.194;7.690;2022-08-02T01:50:38;7.80;;;5.80;;
18449;SDS011;9354;50.194;7.690;2022-08-02T01:53:08;7.20;;;5.87;;
18449;SDS011;9354;50.194;7.690;2022-08-02T01:55:39;9.07;;;6.10;;
18449;SDS011;9354;50.194;7.690;2022-08-02T01:58:09;8.10;;;5.70;;
18449;SDS011;9354;50.194;7.690;2022-08-02T02:00:41;8.50;;;6.20;;
18449;SDS011;9354;50.194;7.690;2022-08-02T02:03:10;9.60;;;5.70;;
18449;SDS011;9354;50.194;7.690;2022-08-02T02:05:39;8.73;;;6.60;;
18449;SDS011;9354;50.194;7.690;2022-08-02T02:08:09;9.60;;;6.63;;
18449;SDS011;9354;50.194;7.690;2022-08-02T02:10:38;10.40;;;6.67;;
18449;SDS011;9354;50.194;7.690;2022-08-02T02:13:07;8.83;;;6.47;;
18449;SDS011;9354;50.194;7.690;2022-08-02T02:15:40;8.37;;;6.23;;
18449;SDS011;9354;50.194;7.690;2022-08-02T02:18:12;9.20;;;6.20;;
18449;SDS011;9354;50.194;7.690;2022-08-02T02:20:43;9.07;;;5.77;;
18449;SDS011;9354;50.194;7.690;2022-08-02T02:23:11;7.47;;;6.00;;
18449;SDS011;9354;50.194;7.690;2022-08-02T02:25:39;7.40;;;5.77;;
18449;SDS011;9354;50.194;7.690;2022-08-02T02:28:08;8.43;;;5.90;;
18449;SDS011;9354;50.194;7.690;2022-08-02T02:30:40;11.57;;;6.33;;
18449;SDS011;9354;50.194;7.690;2022-08-02T02:33:12;11.03;;;7.60;;
18449;SDS011;9354;50.194;7.690;2022-08-02T02:35:42;11.97;;;8.00;;
18449;SDS011;9354;50.194;7.690;2022-08-02T02:38:12;10.13;;;7.47;;
18449;SDS011;9354;50.194;7.690;2022-08-02T02:40:42;11.23;;;7.70;;
18449;SDS011;9354;50.194;7.690;2022-08-02T02:43:11;9.97;;;7.10;;
18449;SDS011;9354;50.194;7.690;2022-08-02T02:45:41;10.53;;;6.53;;
18449;SDS011;9354;50.194;7.690;2022-08-02T02:48:10;9.87;;;6.33;;
18449;SDS011;9354;50.194;7.690;2022-08-02T02:50:40;9.77;;;6.40;;
18449;SDS011;9354;50.194;7.690;2022-08-02T02:53:08;8.50;;;6.50;;
18449;SDS011;9354;50.194;7.690;2022-08-02T02:55:37;8.47;;;6.40;;
18449;SDS011;9354;50.194;7.690;2022-08-02T02:58:05;10.17;;;6.93;;
18449;SDS011;9354;50.194;7.690;2022-08-02T03:00:33;9.77;;;6.70;;
18449;SDS011;9354;50.194;7.690;2022-08-02T03:03:19;7.57;;;6.00;;
18449;SDS011;9354;50.194;7.690;2022-08-02T03:05:47;9.90;;;6.00;;
18449;SDS011;9354;50.194;7.690;2022-08-02T03:08:15;9.23;;;6.27;;
18449;SDS011;9354;50.194;7.690;2022-08-02T03:10:43;9.73;;;6.40;;
18449;SDS011;9354;50.194;7.690;2022-08-02T03:13:11;8.63;;;5.70;;
18449;SDS011;9354;50.194;7.690;2022-08-02T03:15:39;6.77;;;5.50;;
18449;SDS011;9354;50.194;7.690;2022-08-02T03:18:07;6.63;;;5.00;;
18449;SDS011;9354;50.194;7.690;2022-08-02T03:20:36;7.10;;;5.57;;
18449;SDS011;9354;50.194;7.690;2022-08-02T03:23:03;8.47;;;5.90;;
18449;SDS011;9354;50.194;7.690;2022-08-02T03:25:31;8.87;;;5.37;;
18449;SDS011;9354;50.194;7.690;2022-08-02T03:27:58;7.37;;;5.67;;
18449;SDS011;9354;50.194;7.690;2022-08-02T03:30:25;10.07;;;5.47;;
18449;SDS011;9354;50.194;7.690;2022-08-02T03:32:53;6.97;;;5.63;;
18449;SDS011;9354;50.194;7.690;2022-08-02T03:35:20;7.70;;;5.27;;
18449;SDS011;9354;50.194;7.690;2022-08-02T03:37:49;7.67;;;5.87;;
18449;SDS011;9354;50.194;7.690;2022-08-02T03:40:19;8.80;;;6.17;;
18449;SDS011;9354;50.194;7.690;2022-08-02T03:42:47;9.27;;;5.43;;
18449;SDS011;9354;50.194;7.690;2022-08-02T03:45:15;8.40;;;5.77;;
18449;SDS011;9354;50.194;7.690;2022-08-02T03:47:44;8.13;;;5.83;;
18449;SDS011;9354;50.194;7.690;2022-08-02T03:50:12;8.67;;;6.20;;
18449;SDS011;9354;50.194;7.690;2022-08-02T03:52:40;11.90;;;8.23;;
18449;SDS011;9354;50.194;7.690;2022-08-02T03:55:11;14.03;;;7.87;;
18449;SDS011;9354;50.194;7.690;2022-08-02T03:57:39;10.07;;;7.47;;
18449;SDS011;9354;50.194;7.690;2022-08-02T04:00:08;10.60;;;7.53;;
18449;SDS011;9354;50.194;7.690;2022-08-02T04:02:37;9.33;;;6.87;;
18449;SDS011;9354;50.194;7.690;2022-08-02T04:05:05;7.17;;;6.07;;
18449;SDS011;9354;50.194;7.690;2022-08-02T04:07:33;8.50;;;6.10;;
18449;SDS011;9354;50.194;7.690;2022-08-02T04:10:00;8.73;;;6.70;;
18449;SDS011;9354;50.194;7.690;2022-08-02T04:12:29;10.50;;;7.63;;
18449;SDS011;9354;50.194;7.690;2022-08-02T04:14:57;8.33;;;6.67;;
18449;SDS011;9354;50.194;7.690;2022-08-02T04:17:25;8.67;;;6.97;;
18449;SDS011;9354;50.194;7.690;2022-08-02T04:19:57;9.83;;;7.40;;
18449;SDS011;9354;50.194;7.690;2022-08-02T04:22:29;11.83;;;7.97;;
18449;SDS011;9354;50.194;7.690;2022-08-02T04:25:04;9.97;;;7.60;;
18449;SDS011;9354;50.194;7.690;2022-08-02T04:27:36;13.30;;;8.10;;
18449;SDS011;9354;50.194;7.690;2022-08-02T04:30:04;12.30;;;8.63;;
18449;SDS011;9354;50.194;7.690;2022-08-02T04:32:32;11.63;;;7.57;;
18449;SDS011;9354;50.194;7.690;2022-08-02T04:35:01;13.47;;;9.30;;
18449;SDS011;9354;50.194;7.690;2022-08-02T04:37:29;15.10;;;8.70;;
18449;SDS011;9354;50.194;7.690;2022-08-02T04:39:56;12.30;;;8.03;;
18449;SDS011;9354;50.194;7.690;2022-08-02T04:42:24;10.23;;;7.90;;
18449;SDS011;9354;50.194;7.690;2022-08-02T04:44:53;10.07;;;7.47;;
18449;SDS011;9354;50.194;7.690;2022-08-02T04:47:22;8.93;;;7.23;;
18449;SDS011;9354;50.194;7.690;2022-08-02T04:49:50;9.97;;;7.87;;
18449;SDS011;9354;50.194;7.690;2022-08-02T04:52:17;11.10;;;7.30;;
18449;SDS011;9354;50.194;7.690;2022-08-02T04:54:44;9.43;;;7.47;;
18449;SDS011;9354;50.194;7.690;2022-08-02T04:57:13;9.60;;;7.40;;
18449;SDS011;9354;50.194;7.690;2022-08-02T04:59:59;9.60;;;7.70;;
18449;SDS011;9354;50.194;7.690;2022-08-02T05:02:27;10.43;;;7.70;;
18449;SDS011;9354;50.194;7.690;2022-08-02T05:04:54;9.33;;;7.70;;
18449;SDS011;9354;50.194;7.690;2022-08-02T05:07:21;12.07;;;7.27;;
18449;SDS011;9354;50.194;7.690;2022-08-02T05:09:49;10.10;;;7.67;;
18449;SDS011;9354;50.194;7.690;2022-08-02T05:12:16;12.40;;;7.30;;
18449;SDS011;9354;50.194;7.690;2022-08-02T05:14:46;11.10;;;7.97;;
18449;SDS011;9354;50.194;7.690;2022-08-02T05:17:15;10.80;;;7.87;;
18449;SDS011;9354;50.194;7.690;2022-08-02T05:19:42;11.73;;;8.50;;
18449;SDS011;9354;50.194;7.690;2022-08-02T05:22:10;10.87;;;8.23;;
18449;SDS011;9354;50.194;7.690;2022-08-02T05:24:37;11.27;;;8.30;;
18449;SDS011;9354;50.194;7.690;2022-08-02T05:27:04;12.23;;;8.07;;
18449;SDS011;9354;50.194;7.690;2022-08-02T05:29:32;12.53;;;8.37;;
18449;SDS011;9354;50.194;7.690;2022-08-02T05:31:59;11.90;;;8.20;;
18449;SDS011;9354;50.194;7.690;2022-08-02T05:34:28;10.83;;;8.00;;
18449;SDS011;9354;50.194;7.690;2022-08-02T05:36:55;10.97;;;8.20;;
18449;SDS011;9354;50.194;7.690;2022-08-02T05:39:23;11.00;;;7.80;;
18449;SDS011;9354;50.194;7.690;2022-08-02T05:41:50;14.60;;;8.60;;
18449;SDS011;9354;50.194;7.690;2022-08-02T05:44:17;11.83;;;8.57;;
18449;SDS011;9354;50.194;7.690;2022-08-02T05:46:45;11.63;;;8.20;;
18449;SDS011;9354;50.194;7.690;2022-08-02T05:49:12;11.07;;;8.53;;
18449;SDS011;9354;50.194;7.690;2022-08-02T05:51:44;11.40;;;8.23;;
18449;SDS011;9354;50.194;7.690;2022-08-02T05:54:22;8.93;;;7.30;;
18449;SDS011;9354;50.194;7.690;2022-08-02T05:56:58;11.73;;;7.87;;
18449;SDS011;9354;50.194;7.690;2022-08-02T05:59:31;10.10;;;7.67;;
18449;SDS011;9354;50.194;7.690;2022-08-02T06:02:03;11.40;;;7.90;;
18449;SDS011;9354;50.194;7.690;2022-08-02T06:04:47;9.77;;;7.60;;
18449;SDS011;9354;50.194;7.690;2022-08-02T06:07:22;10.17;;;7.67;;
18449;SDS011;9354;50.194;7.690;2022-08-02T06:09:50;12.27;;;7.80;;
18449;SDS011;9354;50.194;7.690;2022-08-02T06:12:18;12.80;;;7.77;;
18449;SDS011;9354;50.194;7.690;2022-08-02T06:14:46;9.67;;;7.53;;
18449;SDS011;9354;50.194;7.690;2022-08-02T06:17:15;9.03;;;7.07;;
18449;SDS011;9354;50.194;7.690;2022-08-02T06:19:43;9.10;;;7.03;;
18449;SDS011;9354;50.194;7.690;2022-08-02T06:22:12;9.83;;;7.20;;
18449;SDS011;9354;50.194;7.690;2022-08-02T06:24:43;12.37;;;7.17;;
18449;SDS011;9354;50.194;7.690;2022-08-02T06:27:12;8.57;;;6.47;;
18449;SDS011;9354;50.194;7.690;2022-08-02T06:29:41;9.13;;;6.77;;
18449;SDS011;9354;50.194;7.690;2022-08-02T06:32:11;9.10;;;6.90;;
18449;SDS011;9354;50.194;7.690;2022-08-02T06:34:41;9.83;;;7.17;;
18449;SDS011;9354;50.194;7.690;2022-08-02T06:37:13;7.80;;;6.33;;
18449;SDS011;9354;50.194;7.690;2022-08-02T06:39:53;11.17;;;5.93;;
18449;SDS011;9354;50.194;7.690;2022-08-02T06:42:25;7.60;;;5.83;;
18449;SDS011;9354;50.194;7.690;2022-08-02T06:44:57;5.87;;;5.10;;
18449;SDS011;9354;50.194;7.690;2022-08-02T06:47:24;8.13;;;5.60;;
18449;SDS011;9354;50.194;7.690;2022-08-02T06:49:52;7.53;;;5.90;;
18449;SDS011;9354;50.194;7.690;2022-08-02T06:52:23;6.23;;;5.20;;
18449;SDS011;9354;50.194;7.690;2022-08-02T06:54:53;11.40;;;6.10;;
18449;SDS011;9354;50.194;7.690;2022-08-02T06:57:21;6.17;;;4.87;;
18449;SDS011;9354;50.194;7.690;2022-08-02T06:59:48;11.27;;;6.23;;
18449;SDS011;9354;50.194;7.690;2022-08-02T07:02:16;6.00;;;5.20;;
18449;SDS011;9354;50.194;7.690;2022-08-02T07:04:43;10.50;;;5.40;;
18449;SDS011;9354;50.194;7.690;2022-08-02T07:07:11;8.03;;;5.50;;
18449;SDS011;9354;50.194;7.690;2022-08-02T07:09:38;8.93;;;4.40;;
18449;SDS011;9354;50.194;7.690;2022-08-02T07:12:07;5.87;;;4.77;;
18449;SDS011;9354;50.194;7.690;2022-08-02T07:14:34;10.10;;;5.40;;
18449;SDS011;9354;50.194;7.690;2022-08-02T07:17:02;12.30;;;4.80;;
18449;SDS011;9354;50.194;7.690;2022-08-02T07:19:29;7.73;;;4.93;;
18449;SDS011;9354;50.194;7.690;2022-08-02T07:21:57;7.63;;;4.40;;
18449;SDS011;9354;50.194;7.690;2022-08-02T07:24:24;6.83;;;4.33;;
18449;SDS011;9354;50.194;7.690;2022-08-02T07:26:51;7.60;;;4.60;;
18449;SDS011;9354;50.194;7.690;2022-08-02T07:29:20;6.87;;;3.83;;
18449;SDS011;9354;50.194;7.690;2022-08-02T07:31:48;6.50;;;3.73;;
18449;SDS011;9354;50.194;7.690;2022-08-02T07:34:15;5.93;;;3.50;;
18449;SDS011;9354;50.194;7.690;2022-08-02T07:36:43;4.63;;;3.47;;
18449;SDS011;9354;50.194;7.690;2022-08-02T07:39:10;4.47;;;2.90;;
18449;SDS011;9354;50.194;7.690;2022-08-02T07:41:38;4.17;;;2.43;;
18449;SDS011;9354;50.194;7.690;2022-08-02T07:44:05;4.33;;;2.50;;
18449;SDS011;9354;50.194;7.690;2022-08-02T07:46:34;4.90;;;2.50;;
18449;SDS011;9354;50.194;7.690;2022-08-02T07:49:01;3.27;;;2.37;;
18449;SDS011;9354;50.194;7.690;2022-08-02T07:51:28;3.83;;;1.63;;
18449;SDS011;9354;50.194;7.690;2022-08-02T07:53:57;2.83;;;1.73;;
18449;SDS011;9354;50.194;7.690;2022-08-02T07:56:25;3.43;;;1.73;;
18449;SDS011;9354;50.194;7.690;2022-08-02T07:58:53;2.07;;;1.40;;
18449;SDS011;9354;50.194;7.690;2022-08-02T08:01:20;1.37;;;1.20;;
18449;SDS011;9354;50.194;7.690;2022-08-02T08:03:49;3.27;;;1.23;;
18449;SDS011;9354;50.194;7.690;2022-08-02T08:06:16;2.20;;;1.30;;
18449;SDS011;9354;50.194;7.690;2022-08-02T08:08:43;2.13;;;1.27;;
18449;SDS011;9354;50.194;7.690;2022-08-02T08:11:11;3.73;;;1.70;;
18449;SDS011;9354;50.194;7.690;2022-08-02T08:13:38;2.00;;;1.30;;
18449;SDS011;9354;50.194;7.690;2022-08-02T08:16:06;1.67;;;1.27;;
18449;SDS011;9354;50.194;7.690;2022-08-02T08:18:33;3.00;;;1.60;;
18449;SDS011;9354;50.194;7.690;2022-08-02T08:21:02;2.07;;;1.40;;
18449;SDS011;9354;50.194;7.690;2022-08-02T08:23:30;1.17;;;1.07;;
18449;SDS011;9354;50.194;7.690;2022-08-02T08:25:58;2.13;;;1.20;;
18449;SDS011;9354;50.194;7.690;2022-08-02T08:28:25;1.93;;;1.20;;
18449;SDS011;9354;50.194;7.690;2022-08-02T08:30:52;1.83;;;1.10;;
18449;SDS011;9354;50.194;7.690;2022-08-02T08:33:20;1.50;;;1.20;;
18449;SDS011;9354;50.194;7.690;2022-08-02T08:35:47;4.77;;;1.73;;
18449;SDS011;9354;50.194;7.690;2022-08-02T08:38:16;2.03;;;1.20;;
18449;SDS011;9354;50.194;7.690;2022-08-02T08:40:43;1.30;;;1.10;;
18449;SDS011;9354;50.194;7.690;2022-08-02T08:43:12;2.80;;;1.27;;
18449;SDS011;9354;50.194;7.690;2022-08-02T08:45:40;2.27;;;1.20;;
18449;SDS011;9354;50.194;7.690;2022-08-02T08:48:10;1.53;;;1.13;;
18449;SDS011;9354;50.194;7.690;2022-08-02T08:50:43;1.67;;;1.20;;
18449;SDS011;9354;50.194;7.690;2022-08-02T08:53:16;1.57;;;0.90;;
18449;SDS011;9354;50.194;7.690;2022-08-02T08:55:45;3.93;;;1.47;;
18449;SDS011;9354;50.194;7.690;2022-08-02T08:58:14;2.57;;;1.10;;
18449;SDS011;9354;50.194;7.690;2022-08-02T09:00:41;1.30;;;1.00;;
18449;SDS011;9354;50.194;7.690;2022-08-02T09:03:09;1.57;;;1.03;;
18449;SDS011;9354;50.194;7.690;2022-08-02T09:05:37;2.20;;;0.97;;
18449;SDS011;9354;50.194;7.690;2022-08-02T09:08:06;3.63;;;1.40;;
18449;SDS011;9354;50.194;7.690;2022-08-02T09:10:36;1.60;;;1.10;;
18449;SDS011;9354;50.194;7.690;2022-08-02T09:13:05;3.07;;;1.30;;
18449;SDS011;9354;50.194;7.690;2022-08-02T09:15:34;1.77;;;1.20;;
18449;SDS011;9354;50.194;7.690;2022-08-02T09:18:02;2.63;;;1.20;;
18449;SDS011;9354;50.194;7.690;2022-08-02T09:20:31;1.63;;;1.20;;
18449;SDS011;9354;50.194;7.690;2022-08-02T09:23:05;3.40;;;1.10;;
18449;SDS011;9354;50.194;7.690;2022-08-02T09:25:33;3.67;;;1.25;;
18449;SDS011;9354;50.194;7.690;2022-08-02T09:28:03;2.10;;;1.20;;
18449;SDS011;9354;50.194;7.690;2022-08-02T09:30:31;1.48;;;1.05;;
18449;SDS011;9354;50.194;7.690;2022-08-02T09:33:08;1.58;;;1.10;;
18449;SDS011;9354;50.194;7.690;2022-08-02T09:35:35;1.27;;;1.17;;
18449;SDS011;9354;50.194;7.690;2022-08-02T09:38:08;3.45;;;1.00;;
18449;SDS011;9354;50.194;7.690;2022-08-02T09:40:38;2.85;;;1.20;;
18449;SDS011;9354;50.194;7.690;2022-08-02T09:43:07;2.58;;;1.20;;
18449;SDS011;9354;50.194;7.690;2022-08-02T09:45:35;1.10;;;1.00;;
18449;SDS011;9354;50.194;7.690;2022-08-02T09:48:05;2.90;;;1.30;;
18449;SDS011;9354;50.194;7.690;2022-08-02T09:50:33;1.63;;;1.10;;
18449;SDS011;9354;50.194;7.690;2022-08-02T09:53:01;1.92;;;1.20;;
18449;SDS011;9354;50.194;7.690;2022-08-02T09:55:29;2.35;;;1.25;;
18449;SDS011;9354;50.194;7.690;2022-08-02T09:57:58;3.22;;;1.20;;
18449;SDS011;9354;50.194;7.690;2022-08-02T10:00:50;1.73;;;1.08;;
18449;SDS011;9354;50.194;7.690;2022-08-02T10:03:21;1.95;;;0.90;;
18449;SDS011;9354;50.194;7.690;2022-08-02T10:05:49;4.18;;;1.23;;
18449;SDS011;9354;50.194;7.690;2022-08-02T10:08:18;1.88;;;1.00;;
18449;SDS011;9354;50.194;7.690;2022-08-02T10:10:46;1.25;;;1.08;;
18449;SDS011;9354;50.194;7.690;2022-08-02T10:13:26;1.60;;;1.02;;
18449;SDS011;9354;50.194;7.690;2022-08-02T10:15:54;1.75;;;1.10;;
18449;SDS011;9354;50.194;7.690;2022-08-02T10:18:22;5.45;;;0.98;;
18449;SDS011;9354;50.194;7.690;2022-08-02T10:20:50;0.88;;;0.88;;
18449;SDS011;9354;50.194;7.690;2022-08-02T10:23:23;3.08;;;1.10;;
18449;SDS011;9354;50.194;7.690;2022-08-02T10:25:52;3.92;;;1.10;;
18449;SDS011;9354;50.194;7.690;2022-08-02T10:28:22;2.75;;;1.13;;
18449;SDS011;9354;50.194;7.690;2022-08-02T10:30:55;3.13;;;1.15;;
18449;SDS011;9354;50.194;7.690;2022-08-02T10:33:23;1.95;;;1.02;;
18449;SDS011;9354;50.194;7.690;2022-08-02T10:35:54;3.08;;;1.10;;
18449;SDS011;9354;50.194;7.690;2022-08-02T10:38:23;1.88;;;1.23;;
18449;SDS011;9354;50.194;7.690;2022-08-02T10:40:51;3.03;;;1.02;;
18449;SDS011;9354;50.194;7.690;2022-08-02T10:43:40;1.05;;;0.90;;
18449;SDS011;9354;50.194;7.690;2022-08-02T10:46:19;1.10;;;1.00;;
18449;SDS011;9354;50.194;7.690;2022-08-02T10:49:01;1.90;;;1.20;;
18449;SDS011;9354;50.194;7.690;2022-08-02T10:54:39;1.60;;;1.00;;
18449;SDS011;9354;50.194;7.690;2022-08-02T10:57:14;3.38;;;1.42;;
18449;SDS011;9354;50.194;7.690;2022-08-02T10:59:45;4.78;;;1.30;;
18449;SDS011;9354;50.194;7.690;2022-08-02T11:02:13;1.30;;;0.90;;
18449;SDS011;9354;50.194;7.690;2022-08-02T11:04:59;4.00;;;1.52;;
18449;SDS011;9354;50.194;7.690;2022-08-02T11:07:30;3.10;;;1.52;;
18449;SDS011;9354;50.194;7.690;2022-08-02T11:09:59;1.77;;;1.20;;
18449;SDS011;9354;50.194;7.690;2022-08-02T11:12:57;3.00;;;1.08;;
18449;SDS011;9354;50.194;7.690;2022-08-02T11:15:27;1.40;;;0.90;;
18449;SDS011;9354;50.194;7.690;2022-08-02T11:17:55;1.50;;;1.00;;
18449;SDS011;9354;50.194;7.690;2022-08-02T11:20:24;2.45;;;1.38;;
18449;SDS011;9354;50.194;7.690;2022-08-02T11:22:53;1.48;;;1.30;;
18449;SDS011;9354;50.194;7.690;2022-08-02T11:25:30;2.08;;;1.00;;
18449;SDS011;9354;50.194;7.690;2022-08-02T11:28:08;2.03;;;1.00;;
18449;SDS011;9354;50.194;7.690;2022-08-02T11:30:38;1.10;;;1.00;;
18449;SDS011;9354;50.194;7.690;2022-08-02T11:33:06;1.30;;;1.00;;
18449;SDS011;9354;50.194;7.690;2022-08-02T11:35:34;2.92;;;0.90;;
18449;SDS011;9354;50.194;7.690;2022-08-02T11:38:12;1.58;;;1.10;;
18449;SDS011;9354;50.194;7.690;2022-08-02T11:40:40;2.83;;;1.10;;
18449;SDS011;9354;50.194;7.690;2022-08-02T11:43:19;1.35;;;1.20;;
18449;SDS011;9354;50.194;7.690;2022-08-02T11:45:49;8.55;;;1.38;;
18449;SDS011;9354;50.194;7.690;2022-08-02T11:48:30;1.40;;;1.00;;
18449;SDS011;9354;50.194;7.690;2022-08-02T11:51:06;1.42;;;1.10;;
18449;SDS011;9354;50.194;7.690;2022-08-02T11:53:48;2.40;;;1.30;;
18449;SDS011;9354;50.194;7.690;2022-08-02T11:56:17;2.30;;;1.15;;
18449;SDS011;9354;50.194;7.690;2022-08-02T11:59:02;2.03;;;1.25;;
18449;SDS011;9354;50.194;7.690;2022-08-02T12:01:32;1.83;;;1.05;;
18449;SDS011;9354;50.194;7.690;2022-08-02T12:04:01;2.60;;;1.35;;
18449;SDS011;9354;50.194;7.690;2022-08-02T12:06:29;2.72;;;1.08;;
18449;SDS011;9354;50.194;7.690;2022-08-02T12:08:58;1.48;;;1.35;;
18449;SDS011;9354;50.194;7.690;2022-08-02T12:11:28;1.40;;;1.30;;
18449;SDS011;9354;50.194;7.690;2022-08-02T12:13:56;3.15;;;1.40;;
18449;SDS011;9354;50.194;7.690;2022-08-02T12:16:23;3.95;;;1.23;;
18449;SDS011;9354;50.194;7.690;2022-08-02T12:19:10;1.48;;;1.20;;
18449;SDS011;9354;50.194;7.690;2022-08-02T12:21:47;1.75;;;1.10;;
18449;SDS011;9354;50.194;7.690;2022-08-02T12:24:31;1.35;;;1.13;;
18449;SDS011;9354;50.194;7.690;2022-08-02T12:26:59;1.40;;;1.23;;
18449;SDS011;9354;50.194;7.690;2022-08-02T12:29:30;4.85;;;1.23;;
18449;SDS011;9354;50.194;7.690;2022-08-02T12:31:58;2.60;;;1.15;;
18449;SDS011;9354;50.194;7.690;2022-08-02T12:34:28;2.75;;;1.20;;
18449;SDS011;9354;50.194;7.690;2022-08-02T12:36:57;3.45;;;1.40;;
18449;SDS011;9354;50.194;7.690;2022-08-02T12:39:34;2.45;;;1.40;;
18449;SDS011;9354;50.194;7.690;2022-08-02T12:42:03;1.85;;;1.50;;
18449;SDS011;9354;50.194;7.690;2022-08-02T12:44:32;2.63;;;1.15;;
18449;SDS011;9354;50.194;7.690;2022-08-02T12:47:00;2.58;;;1.38;;
18449;SDS011;9354;50.194;7.690;2022-08-02T12:49:30;2.85;;;1.10;;
18449;SDS011;9354;50.194;7.690;2022-08-02T12:51:58;2.28;;;1.20;;
18449;SDS011;9354;50.194;7.690;2022-08-02T12:54:26;4.30;;;1.40;;
18449;SDS011;9354;50.194;7.690;2022-08-02T12:56:57;1.95;;;1.30;;
18449;SDS011;9354;50.194;7.690;2022-08-02T12:59:35;2.25;;;1.40;;
18449;SDS011;9354;50.194;7.690;2022-08-02T13:02:04;2.10;;;1.40;;
18449;SDS011;9354;50.194;7.690;2022-08-02T13:04:34;1.83;;;1.27;;
18449;SDS011;9354;50.194;7.690;2022-08-02T13:07:02;1.83;;;1.20;;
18449;SDS011;9354;50.194;7.690;2022-08-02T13:09:34;2.30;;;1.50;;
18449;SDS011;9354;50.194;7.690;2022-08-02T13:12:02;6.78;;;1.33;;
18449;SDS011;9354;50.194;7.690;2022-08-02T13:14:30;0.93;;;0.93;;
18449;SDS011;9354;50.194;7.690;2022-08-02T13:16:58;2.08;;;1.42;;
18449;SDS011;9354;50.194;7.690;2022-08-02T13:19:26;1.48;;;1.35;;
18449;SDS011;9354;50.194;7.690;2022-08-02T13:21:55;2.67;;;1.40;;
18449;SDS011;9354;50.194;7.690;2022-08-02T13:24:22;4.88;;;1.30;;
18449;SDS011;9354;50.194;7.690;2022-08-02T13:26:49;1.52;;;1.23;;
18449;SDS011;9354;50.194;7.690;2022-08-02T13:29:17;1.65;;;1.35;;
18449;SDS011;9354;50.194;7.690;2022-08-02T13:31:44;1.30;;;1.15;;
18449;SDS011;9354;50.194;7.690;2022-08-02T13:34:12;1.88;;;1.40;;
18449;SDS011;9354;50.194;7.690;2022-08-02T13:36:41;2.42;;;1.33;;
18449;SDS011;9354;50.194;7.690;2022-08-02T13:39:09;3.60;;;1.25;;
18449;SDS011;9354;50.194;7.690;2022-08-02T13:41:37;3.95;;;1.15;;
18449;SDS011;9354;50.194;7.690;2022-08-02T13:44:04;1.98;;;1.40;;
18449;SDS011;9354;50.194;7.690;2022-08-02T13:46:32;4.50;;;1.40;;
18449;SDS011;9354;50.194;7.690;2022-08-02T13:49:01;5.05;;;1.50;;
18449;SDS011;9354;50.194;7.690;2022-08-02T13:51:28;1.95;;;1.20;;
18449;SDS011;9354;50.194;7.690;2022-08-02T13:53:55;6.32;;;1.25;;
18449;SDS011;9354;50.194;7.690;2022-08-02T13:56:24;2.25;;;1.40;;
18449;SDS011;9354;50.194;7.690;2022-08-02T13:58:52;3.63;;;1.15;;
18449;SDS011;9354;50.194;7.690;2022-08-02T14:01:19;2.35;;;1.23;;
18449;SDS011;9354;50.194;7.690;2022-08-02T14:03:46;8.85;;;1.17;;
18449;SDS011;9354;50.194;7.690;2022-08-02T14:06:14;3.95;;;1.40;;
18449;SDS011;9354;50.194;7.690;2022-08-02T14:08:41;2.47;;;1.05;;
18449;SDS011;9354;50.194;7.690;2022-08-02T14:11:08;1.95;;;1.35;;
18449;SDS011;9354;50.194;7.690;2022-08-02T14:13:37;1.25;;;1.15;;
18449;SDS011;9354;50.194;7.690;2022-08-02T14:16:05;1.70;;;1.08;;
18449;SDS011;9354;50.194;7.690;2022-08-02T14:18:32;1.35;;;1.20;;
18449;SDS011;9354;50.194;7.690;2022-08-02T14:21:00;1.30;;;1.20;;
18449;SDS011;9354;50.194;7.690;2022-08-02T14:23:27;1.33;;;1.10;;
18449;SDS011;9354;50.194;7.690;2022-08-02T14:25:55;4.43;;;1.10;;
18449;SDS011;9354;50.194;7.690;2022-08-02T14:28:22;3.80;;;1.23;;
18449;SDS011;9354;50.194;7.690;2022-08-02T14:30:51;2.00;;;1.10;;
18449;SDS011;9354;50.194;7.690;2022-08-02T14:33:19;1.45;;;1.00;;
18449;SDS011;9354;50.194;7.690;2022-08-02T14:35:46;1.25;;;1.10;;
18449;SDS011;9354;50.194;7.690;2022-08-02T14:38:13;2.47;;;1.50;;
18449;SDS011;9354;50.194;7.690;2022-08-02T14:40:43;4.63;;;1.33;;
18449;SDS011;9354;50.194;7.690;2022-08-02T14:43:11;1.85;;;1.20;;
18449;SDS011;9354;50.194;7.690;2022-08-02T14:46:00;2.03;;;1.40;;
18449;SDS011;9354;50.194;7.690;2022-08-02T14:48:28;1.52;;;1.20;;
18449;SDS011;9354;50.194;7.690;2022-08-02T14:50:55;2.83;;;1.40;;
18449;SDS011;9354;50.194;7.690;2022-08-02T14:53:22;3.38;;;1.23;;
18449;SDS011;9354;50.194;7.690;2022-08-02T14:55:50;1.95;;;1.20;;
18449;SDS011;9354;50.194;7.690;2022-08-02T14:58:17;2.40;;;1.27;;
18449;SDS011;9354;50.194;7.690;2022-08-02T15:00:44;2.60;;;1.20;;
18449;SDS011;9354;50.194;7.690;2022-08-02T15:03:13;1.50;;;1.23;;
18449;SDS011;9354;50.194;7.690;2022-08-02T15:05:41;2.45;;;1.05;;
18449;SDS011;9354;50.194;7.690;2022-08-02T15:08:08;3.90;;;1.10;;
18449;SDS011;9354;50.194;7.690;2022-08-02T15:10:35;1.60;;;1.20;;
18449;SDS011;9354;50.194;7.690;2022-08-02T15:13:03;1.80;;;1.27;;
18449;SDS011;9354;50.194;7.690;2022-08-02T15:15:30;2.97;;;1.42;;
18449;SDS011;9354;50.194;7.690;2022-08-02T15:17:58;1.80;;;1.00;;
18449;SDS011;9354;50.194;7.690;2022-08-02T15:20:27;1.73;;;1.23;;